Burlington, VT (05401)

11:33 PM EDT on August 30, 2014 (GMT -0400)
Lakeside Ave | Change Station
CLOSE
Current Station
Personal Weather Station
Location: BURLINGTON, VT
Elevation: 112 ft
Nearby Weather Stations

Elev 112 ft 44.46 °N, 73.22 °W | Updated 3 seconds ago

Partly Cloudy
Partly Cloudy
72.2 °F
Feels Like 74 °F
N
19.0
Wind Variable Wind from SSW
Gusts 19.0 mph

Today
High -- | Low -- °F
--% Chance of Precip.
Yesterday
High -- | Low -- °F
Precip. -- in
6:13 AM 7:32 PM
Waxing Crescent, 27% visible
Pressure 30.01 in
Visibility 10.0 miles
Clouds Few 12000 ft
Heat Index 74 °F
Dew Point 63 °F
Humidity 73%
Rainfall 0.00 in
Snow Depth Not available.
UV 0 out of 12
Pollen 7.70 out of 12
Ozone Good
PM2.5 Good
Flu Activity Not available.
METAR KBTV 310254Z 19016G23KT 10SM FEW120 23/15 A3001 RMK AO2 PK WND 20026/0212 SLP162 T02280150 58001

More Conditions Fewer Conditions

Pressure 30.01 in
Visibility 10.0 miles
Clouds Few 12000 ft
Heat Index 74 °F
Dew Point 63 °F
Humidity 73%
Rainfall 0.00 in
Snow Depth Not available.
UV 0 out of 12
Pollen 7.70 out of 12
Ozone Good
PM2.5 Good
Flu Activity Not available.
METAR KBTV 310254Z 19016G23KT 10SM FEW120 23/15 A3001 RMK AO2 PK WND 20026/0212 SLP162 T02280150 58001

More Conditions Fewer Conditions

10-Day Weather Forecast

Almanac

Astronomy

Aug. 30, 2014 Rise Set
Actual Time 6:13 AM EDT 7:32 PM EDT
Civil Twilight 5:43 AM EDT 8:03 PM EDT
Nautical Twilight 5:06 AM EDT 8:39 PM EDT
Astronomical Twilight 4:27 AM EDT 9:17 PM EDT
Moon 11:10 AM EDT (8/30) 9:52 PM EDT (8/30)
Length of Visible Light 14h 20m
Length of Day
13h 19m
Tomorrow will be 2m 56s shorter.
Waxing Crescent, 27% of the Moon is Illuminated
Today
Waxing Crescent
Sep 2
First Quarter
Sep 8
Full
Sep 15
Last Quarter
Sep 24
New

Today's Extremes

State Highs State Lows

Community

WunderPhotos

Upload Photos

1,748,772 photos uploaded!

Nearby

Air Quality

  Air Quality AQ Index Pollutant
Yesterday Good
OZONE
Yesterday Good
PM2.5
Current Good
OZONE
Current Good
PM2.5
Saturday Good
PM2.5
Sunday Good
PM2.5
Sunday Good
OZONE
Monday Good
PM2.5
Tuesday Good
PM2.5

Snow Depth

Station Depth Elevation
No new snow has been reported.

Earthquake Activity

City Distance Mag. Time & Date
No recent earthquake activity has been reported nearby.
Minimum magnitude displayed is 2.5.

Coastal Water Temperatures

Place Temperature
No Stations Reporting

Nearby Weather Stations